Amura — H8AV — position and weather

sailwx.info

Track history (hours):
 
Tides and Currents Weather Stations Pressure Air Temp Water Temp Dewpoint Dewpoint Depression Visibility Wind Speed Wind Dir Waves Ship Positions

Amura

Last reported at 2017-Sep-12 08:52 UTC. Time now 2017-Sep-21 12:29 UTC.
Position N 25°44' W 080°09'.
Warning: this ship's position is 9 days out of date.

Length 291 m; draft 14.9 m.

Type: Cargo ship. MMSI: 371691000.

Date/timePositionNaut miles runAvg speedWind from/ knotsBaromVisibWave heightAir tempDewpointWater temp
2017-Sep-12 08:52N 25°44' W 080°09'0 0.0
2017-Sep-12 08:25N 25°44' W 080°09'0 0.0
2017-Sep-12 07:52N 25°44' W 080°09'0 0.0
2017-Sep-12 07:28N 25°44' W 080°09'0 0.0
2017-Sep-12 06:58N 25°44' W 080°09'0 0.0
2017-Sep-12 06:28N 25°44' W 080°09'0 0.0
2017-Sep-12 05:58N 25°44' W 080°09'0 0.0
2017-Sep-12 05:28N 25°44' W 080°09'0 0.0
2017-Sep-12 04:58N 25°44' W 080°09'0 0.0
2017-Sep-12 04:28N 25°44' W 080°09'0 0.0
2017-Sep-12 03:58N 25°44' W 080°09'0 0.0
2017-Sep-12 03:25N 25°44' W 080°09'0 0.0
2017-Sep-12 02:58N 25°44' W 080°09'0 0.0
2017-Sep-12 02:16N 25°44' W 080°09'0 0.0
2017-Sep-12 01:55N 25°44' W 080°09'0 0.0
2017-Sep-12 01:25N 25°44' W 080°09'0 0.0
2017-Sep-12 00:58N 25°44' W 080°09'0 0.0
2017-Sep-12 00:28N 25°44' W 080°09'  
2017-Sep-06 18:09N 25°44' W 080°09'0 0.0
2017-Sep-06 17:59N 25°44' W 080°09'0 0.0
2017-Sep-06 17:29N 25°44' W 080°09'2 3.4
2017-Sep-06 16:59N 25°43' W 080°11'3 6.8
2017-Sep-06 16:30N 25°40' W 080°09'3 6.5
2017-Sep-06 16:00N 25°40' W 080°06'4 8.0
2017-Sep-06 15:30N 25°41' W 080°02'4 7.7
2017-Sep-06 14:59N 25°41' W 079°57'4 7.3
2017-Sep-06 14:28N 25°42' W 079°53'4 7.0
2017-Sep-06 13:56N 25°43' W 079°49'3 6.5
2017-Sep-06 13:26N 25°43' W 079°46'  
Track history (hours):
 
Tides and Currents Weather Stations Pressure Air Temp Water Temp Dewpoint Dewpoint Depression Visibility Wind Speed Wind Dir Waves Ship Positions

Amura

Last reported at 2017-Sep-12 08:52 UTC. Time now 2017-Sep-21 12:29 UTC.
Position N 25°44' W 080°09'.
Warning: this ship's position is 9 days out of date.

Length 291 m; draft 14.9 m.

Type: Cargo ship. MMSI: 371691000.

Date/timePositionNaut miles runAvg speedWind from/ knotsBaromVisibWave heightAir tempDewpointWater temp
2017-Sep-12 08:52N 25°44' W 080°09'0 0.0
2017-Sep-12 08:25N 25°44' W 080°09'0 0.0
2017-Sep-12 07:52N 25°44' W 080°09'0 0.0
2017-Sep-12 07:28N 25°44' W 080°09'0 0.0
2017-Sep-12 06:58N 25°44' W 080°09'0 0.0
2017-Sep-12 06:28N 25°44' W 080°09'0 0.0
2017-Sep-12 05:58N 25°44' W 080°09'0 0.0
2017-Sep-12 05:28N 25°44' W 080°09'0 0.0
2017-Sep-12 04:58N 25°44' W 080°09'0 0.0
2017-Sep-12 04:28N 25°44' W 080°09'0 0.0
2017-Sep-12 03:58N 25°44' W 080°09'0 0.0
2017-Sep-12 03:25N 25°44' W 080°09'0 0.0
2017-Sep-12 02:58N 25°44' W 080°09'0 0.0
2017-Sep-12 02:16N 25°44' W 080°09'0 0.0
2017-Sep-12 01:55N 25°44' W 080°09'0 0.0
2017-Sep-12 01:25N 25°44' W 080°09'0 0.0
2017-Sep-12 00:58N 25°44' W 080°09'0 0.0
2017-Sep-12 00:28N 25°44' W 080°09'  
2017-Sep-06 18:09N 25°44' W 080°09'0 0.0
2017-Sep-06 17:59N 25°44' W 080°09'0 0.0
2017-Sep-06 17:29N 25°44' W 080°09'2 3.4
2017-Sep-06 16:59N 25°43' W 080°11'3 6.8
2017-Sep-06 16:30N 25°40' W 080°09'3 6.5
2017-Sep-06 16:00N 25°40' W 080°06'4 8.0
2017-Sep-06 15:30N 25°41' W 080°02'4 7.7
2017-Sep-06 14:59N 25°41' W 079°57'4 7.3
2017-Sep-06 14:28N 25°42' W 079°53'4 7.0
2017-Sep-06 13:56N 25°43' W 079°49'3 6.5
2017-Sep-06 13:26N 25°43' W 079°46'  

Dump ship's entire track history